Time;durP1;ratioP1;P1;durP2;ratioP2;P2;SDS_P1;SDS_P2;PMS_P1;PMS_P2;Temp;Humidity;BMP_temperature;BMP_pressure;BME280_temperature;BME280_humidity;BME280_pressure;Samples;Min_cycle;Max_cycle;Signal;HPM_P1;HPM_P2
2023/04/02 00:02:21;;;;;;;9.05;1.55;;;;;;;7.67;73.55;100275.19;5038620;28;20028;-65
2023/04/02 00:05:24;;;;;;;9.27;1.90;;;;;;;7.67;73.07;100276.94;5027943;28;20037;-65
2023/04/02 00:07:52;;;;;;;7.63;0.90;;;;;;;7.66;73.17;100276.06;5036120;28;20386;-65
2023/04/02 00:10:45;;;;;;;9.70;1.10;;;;;;;7.68;73.23;100279.56;5036712;28;20045;-65
2023/04/02 00:13:11;;;;;;;10.50;1.00;;;;;;;7.66;73.99;100278.69;5037321;28;20438;-65
2023/04/02 00:15:38;;;;;;;10.73;1.40;;;;;;;7.68;73.75;100273.44;5036254;28;20061;-65
2023/04/02 00:18:04;;;;;;;7.55;1.10;;;;;;;7.68;74.28;100276.94;5037001;28;20021;-65
2023/04/02 00:20:34;;;;;;;11.35;1.02;;;;;;;7.66;73.60;100276.06;5037936;28;20032;-65
2023/04/02 00:22:59;;;;;;;4.40;0.80;;;;;;;7.67;73.69;100272.56;5038285;28;20108;-65
2023/04/02 00:25:27;;;;;;;8.25;0.65;;;;;;;7.69;74.05;100283.06;5035876;28;20056;-65
2023/04/02 00:27:53;;;;;;;9.47;0.70;;;;;;;7.70;74.08;100272.59;5035215;28;20025;-65
2023/04/02 00:30:19;;;;;;;9.35;0.80;;;;;;;7.72;74.20;100281.34;5035705;28;20112;-65
2023/04/02 00:32:44;;;;;;;6.85;0.50;;;;;;;7.71;74.23;100271.72;5037055;28;20057;-65
2023/04/02 00:35:26;;;;;;;5.20;0.50;;;;;;;7.70;74.11;100275.22;5038011;28;20025;-65
2023/04/02 00:37:52;;;;;;;10.18;0.75;;;;;;;7.68;74.10;100278.69;5036207;28;20021;-65
2023/04/02 00:40:27;;;;;;;7.15;0.68;;;;;;;7.67;74.15;100276.94;5036890;28;20029;-65
2023/04/02 00:42:57;;;;;;;5.90;0.70;;;;;;;7.65;74.26;100279.56;5036710;28;20029;-65
2023/04/02 00:45:28;;;;;;;5.67;0.67;;;;;;;7.64;74.01;100272.56;5035694;28;20033;-65
2023/04/02 00:47:58;;;;;;;11.82;1.02;;;;;;;7.59;74.42;100271.63;5065705;28;20017;-65
2023/04/02 00:50:39;;;;;;;5.65;0.70;;;;;;;7.60;74.36;100279.50;5036319;28;20040;-65
2023/04/02 00:53:16;;;;;;;6.95;0.60;;;;;;;7.60;74.15;100278.66;5035918;28;20045;-65
2023/04/02 00:55:42;;;;;;;8.30;0.70;;;;;;;7.61;74.27;100273.41;5038838;28;20033;-65
2023/04/02 00:58:25;;;;;;;11.07;0.70;;;;;;;7.62;74.41;100279.53;5035902;28;20018;-65
2023/04/02 01:00:51;;;;;;;5.30;0.70;;;;;;;7.61;74.12;100289.13;5035527;28;20024;-65
2023/04/02 01:03:16;;;;;;;9.82;1.35;;;;;;;7.59;74.44;100280.38;5032285;28;20457;-65
2023/04/02 01:06:17;;;;;;;9.43;0.83;;;;;;;7.59;74.47;100280.38;5035833;28;20104;-65
2023/04/02 01:08:49;;;;;;;8.35;0.60;;;;;;;7.58;74.46;100280.34;5052530;28;20036;-65
2023/04/02 01:11:39;;;;;;;7.53;0.50;;;;;;;7.58;74.91;100268.13;5055403;28;20048;-65
2023/04/02 01:14:28;;;;;;;8.90;0.80;;;;;;;7.57;74.31;100275.97;5053186;28;20029;-64
2023/04/02 01:17:07;;;;;;;5.03;0.50;;;;;;;7.59;74.19;100279.47;5054048;28;20025;-64
2023/04/02 01:19:51;;;;;;;7.22;0.90;;;;;;;7.57;74.44;100283.84;5055223;28;20119;-64
2023/04/02 01:22:35;;;;;;;6.32;0.52;;;;;;;7.56;74.40;100288.22;5059445;28;20572;-64
2023/04/02 01:25:03;;;;;;;8.75;1.13;;;;;;;7.54;74.91;100287.31;5044052;28;20056;-64
2023/04/02 01:27:44;;;;;;;7.37;0.73;;;;;;;7.55;74.72;100298.66;5039442;28;20029;-66
2023/04/02 01:30:11;;;;;;;8.75;0.60;;;;;;;7.56;75.08;100298.69;5032514;28;20151;-65
2023/04/02 01:32:38;;;;;;;6.55;0.98;;;;;;;7.59;74.74;100297.81;5039527;28;20029;-64
2023/04/02 01:35:04;;;;;;;8.70;0.60;;;;;;;7.63;74.93;100297.00;5046231;28;20485;-64
2023/04/02 01:37:39;;;;;;;6.60;0.60;;;;;;;7.67;74.53;100298.78;5059520;28;20107;-64
2023/04/02 01:40:24;;;;;;;10.37;1.03;;;;;;;7.72;74.40;100296.22;5059476;28;20458;-64
2023/04/02 01:43:11;;;;;;;8.18;1.00;;;;;;;7.71;74.63;100294.44;5040613;28;20099;-66
2023/04/02 01:45:37;;;;;;;10.68;1.00;;;;;;;7.71;74.48;100300.56;5039283;28;20029;-66
2023/04/02 01:48:15;;;;;;;7.57;0.80;;;;;;;7.73;75.04;100304.06;5039569;28;20030;-65
2023/04/02 01:50:42;;;;;;;9.27;1.02;;;;;;;7.75;74.78;100298.84;5040736;28;20025;-65
2023/04/02 01:53:12;;;;;;;10.52;0.90;;;;;;;7.76;74.87;100298.84;5050078;28;20030;-66
2023/04/02 01:55:37;;;;;;;10.20;0.80;;;;;;;7.78;74.37;100300.59;5039363;28;20087;-66
2023/04/02 01:58:04;;;;;;;7.03;0.60;;;;;;;7.79;74.92;100294.50;5039512;28;20026;-66
2023/04/02 02:00:31;;;;;;;7.90;0.80;;;;;;;7.80;74.78;100298.88;5039096;28;20022;-66
2023/04/02 02:02:59;;;;;;;12.75;0.93;;;;;;;7.83;74.72;100293.66;5030289;28;20032;-66
2023/04/02 02:05:25;;;;;;;7.37;1.07;;;;;;;7.84;74.98;100295.44;5039146;28;20075;-66
2023/04/02 02:07:51;;;;;;;8.05;0.88;;;;;;;7.84;74.50;100292.81;5039190;28;20044;-66
2023/04/02 02:10:24;;;;;;;11.20;0.90;;;;;;;7.82;74.80;100292.78;5039076;28;20506;-66
2023/04/02 02:12:50;;;;;;;7.75;0.82;;;;;;;7.83;75.28;100280.53;5039116;28;20034;-66
2023/04/02 02:15:19;;;;;;;13.93;1.10;;;;;;;7.81;75.11;100279.66;5038692;28;20013;-66
2023/04/02 02:17:44;;;;;;;11.50;1.17;;;;;;;7.81;75.12;100274.41;5038998;28;20397;-66
2023/04/02 02:20:12;;;;;;;10.00;1.00;;;;;;;7.80;74.72;100281.41;5038917;28;20033;-66
2023/04/02 02:22:49;;;;;;;12.05;1.17;;;;;;;7.76;74.99;100292.75;5039017;28;20053;-66
2023/04/02 02:25:20;;;;;;;8.18;1.08;;;;;;;7.78;75.39;100282.25;5038649;28;20509;-66
2023/04/02 02:27:48;;;;;;;10.07;0.90;;;;;;;7.79;75.11;100281.38;5038514;28;20040;-66
2023/04/02 02:30:22;;;;;;;13.15;1.00;;;;;;;7.79;75.07;100278.75;5038611;28;20029;-66
2023/04/02 02:32:59;;;;;;;8.43;1.20;;;;;;;7.76;75.46;100285.75;5037669;28;20117;-66
2023/04/02 02:35:38;;;;;;;12.73;1.08;;;;;;;7.75;75.30;100289.22;5038661;28;20061;-66
2023/04/02 02:38:33;;;;;;;9.10;1.00;;;;;;;7.73;75.24;100287.47;5038525;28;20495;-66
2023/04/02 02:41:23;;;;;;;10.30;0.80;;;;;;;7.71;75.37;100290.06;5038528;28;20021;-66
2023/04/02 02:44:09;;;;;;;9.77;0.77;;;;;;;7.69;74.84;100288.31;5038611;28;20041;-66
2023/04/02 02:46:39;;;;;;;7.20;0.77;;;;;;;7.67;75.45;100283.06;5034051;28;20510;-66
2023/04/02 02:49:06;;;;;;;8.98;1.30;;;;;;;7.68;74.94;100283.91;5038740;28;20026;-66
2023/04/02 02:51:51;;;;;;;10.70;1.60;;;;;;;7.70;75.91;100287.44;5037096;28;20092;-66
2023/04/02 02:54:18;;;;;;;11.10;1.60;;;;;;;7.70;75.68;100292.66;5038089;28;20021;-66
2023/04/02 02:56:52;;;;;;;12.27;1.88;;;;;;;7.71;75.78;100289.19;5038361;28;20104;-66
2023/04/02 02:59:20;;;;;;;9.70;1.40;;;;;;;7.72;75.48;100296.22;5038273;28;20025;-66
2023/04/02 03:01:46;;;;;;;8.27;1.52;;;;;;;7.74;75.04;100300.59;5038885;28;20026;-66
2023/04/02 03:04:12;;;;;;;10.77;1.73;;;;;;;7.76;75.54;100298.84;5056803;28;20033;-66
2023/04/02 03:06:39;;;;;;;11.50;1.40;;;;;;;7.80;75.06;100304.13;5057989;28;20029;-66
2023/04/02 03:09:59;;;;;;;14.13;1.30;;;;;;;7.81;75.41;100303.25;5057981;28;20460;-66
2023/04/02 03:12:35;;;;;;;15.23;1.80;;;;;;;7.82;75.77;100302.38;5035819;28;20139;-66
2023/04/02 03:15:12;;;;;;;15.32;1.20;;;;;;;7.85;75.30;100307.69;5054694;28;20526;-66
2023/04/02 03:17:48;;;;;;;8.52;1.00;;;;;;;7.87;75.56;100311.19;5058003;28;20089;-66
2023/04/02 03:20:37;;;;;;;19.05;1.92;;;;;;;7.91;75.40;100312.97;5057782;28;20021;-66
2023/04/02 03:23:07;;;;;;;12.30;1.02;;;;;;;7.93;75.85;100313.84;5055681;28;20025;-66
2023/04/02 03:25:45;;;;;;;13.30;1.30;;;;;;;7.95;75.48;100309.47;5037784;28;20904;-65
2023/04/02 03:28:16;;;;;;;9.20;1.00;;;;;;;7.97;75.93;100313.00;5037395;28;20446;-66
2023/04/02 03:30:51;;;;;;;11.95;1.30;;;;;;;7.97;75.65;100312.13;5037299;28;20033;-66
2023/04/02 03:33:34;;;;;;;11.30;0.90;;;;;;;7.98;75.22;100317.38;5037496;28;20017;-66
2023/04/02 03:36:12;;;;;;;13.05;0.98;;;;;;;7.99;75.63;100326.13;5037589;28;20035;-66
2023/04/02 03:39:05;;;;;;;15.37;1.20;;;;;;;8.00;76.05;100323.50;5036101;28;20375;-66
2023/04/02 03:41:40;;;;;;;12.77;1.30;;;;;;;8.01;75.79;100322.63;5015895;28;20041;-64
2023/04/02 03:44:18;;;;;;;15.55;1.23;;;;;;;8.03;75.84;100326.16;5039290;28;20071;-66
2023/04/02 03:46:56;;;;;;;10.52;1.00;;;;;;;8.00;76.53;100328.75;5057178;28;20396;-66
2023/04/02 03:49:40;;;;;;;15.05;1.50;;;;;;;8.01;76.01;100320.00;5038172;28;20423;-66
2023/04/02 03:52:12;;;;;;;14.07;1.03;;;;;;;8.01;76.04;100320.00;5037124;28;20030;-66
2023/04/02 03:54:38;;;;;;;12.32;1.30;;;;;;;8.01;76.37;100316.53;5037070;28;20067;-66
2023/04/02 03:57:10;;;;;;;10.77;1.42;;;;;;;8.02;76.21;100311.28;5037025;28;20033;-66
2023/04/02 03:59:42;;;;;;;19.67;1.60;;;;;;;8.03;76.49;100312.16;5037193;28;20029;-66
2023/04/02 04:02:48;;;;;;;11.82;1.20;;;;;;;7.99;76.94;100316.50;5040586;28;20035;-66
2023/04/02 04:05:30;;;;;;;10.40;1.20;;;;;;;7.98;76.22;100317.38;5057006;28;20021;-66
2023/04/02 04:08:01;;;;;;;16.48;1.60;;;;;;;7.99;76.65;100320.88;5057277;28;20025;-66
2023/04/02 04:10:28;;;;;;;16.88;1.40;;;;;;;8.00;76.56;100320.03;5056879;28;20115;-66
2023/04/02 04:13:00;;;;;;;13.52;1.20;;;;;;;7.98;76.18;100312.13;5057058;28;20029;-66
2023/04/02 04:15:50;;;;;;;12.35;1.40;;;;;;;7.96;76.87;100324.34;5056791;28;20440;-66
2023/04/02 04:18:36;;;;;;;14.73;1.57;;;;;;;7.94;76.40;100312.97;5057010;28;20039;-66
2023/04/02 04:21:14;;;;;;;14.55;1.67;;;;;;;7.95;76.36;100312.09;5056776;28;20076;-65
2023/04/02 04:23:48;;;;;;;18.58;1.38;;;;;;;7.97;76.76;100318.25;5052743;28;20072;-66
2023/04/02 04:26:23;;;;;;;13.15;1.60;;;;;;;7.98;77.01;100320.00;5037022;28;20022;-66
2023/04/02 04:29:13;;;;;;;21.30;2.15;;;;;;;8.00;76.76;100318.25;5036867;28;20029;-66
2023/04/02 04:31:53;;;;;;;12.53;1.17;;;;;;;8.02;76.77;100327.00;5036967;28;20031;-66
2023/04/02 04:34:28;;;;;;;16.33;2.08;;;;;;;8.05;76.75;100328.78;5036875;28;20025;-66
2023/04/02 04:37:00;;;;;;;17.02;1.77;;;;;;;8.05;76.63;100329.66;5036935;28;20485;-66
2023/04/02 04:39:49;;;;;;;20.77;2.13;;;;;;;8.07;77.00;100323.53;5039070;28;20033;-66
2023/04/02 04:42:22;;;;;;;10.30;1.42;;;;;;;8.04;77.23;100325.28;5042704;28;20478;-66
2023/04/02 04:44:59;;;;;;;16.93;1.77;;;;;;;8.02;77.30;100327.00;5037090;28;20025;-66
2023/04/02 04:47:34;;;;;;;18.27;1.45;;;;;;;8.02;76.60;100327.00;5036634;28;20049;-65
2023/04/02 04:50:20;;;;;;;17.38;1.65;;;;;;;8.01;77.12;100325.25;5035437;28;20037;-66
2023/04/02 04:52:45;;;;;;;12.48;1.30;;;;;;;8.01;76.82;100325.25;5036510;28;20032;-66
2023/04/02 04:55:34;;;;;;;23.30;2.20;;;;;;;7.98;77.02;100330.47;5037096;28;20084;-66
2023/04/02 04:58:13;;;;;;;14.38;1.35;;;;;;;7.95;77.26;100335.72;5040843;28;20037;-66
2023/04/02 05:00:46;;;;;;;17.73;2.35;;;;;;;7.92;77.03;100335.69;5040511;28;20405;-66
2023/04/02 05:03:27;;;;;;;20.93;1.97;;;;;;;7.90;77.35;100337.44;5052758;28;20057;-66
2023/04/02 05:05:53;;;;;;;23.00;1.95;;;;;;;7.89;77.37;100346.16;5060883;28;20473;-66
2023/04/02 05:08:22;;;;;;;19.70;1.60;;;;;;;7.87;77.28;100347.88;5060456;28;20098;-66
2023/04/02 05:11:06;;;;;;;18.13;1.50;;;;;;;7.84;77.33;100342.63;5060439;28;20041;-66
2023/04/02 05:13:50;;;;;;;16.65;1.63;;;;;;;7.81;77.41;100345.19;5060254;28;20108;-66
2023/04/02 05:16:21;;;;;;;16.50;1.63;;;;;;;7.80;77.17;100357.44;5060248;28;20501;-66
2023/04/02 05:18:59;;;;;;;18.35;1.70;;;;;;;7.78;76.89;100358.28;5058976;28;20033;-66
2023/04/02 05:21:41;;;;;;;14.07;1.92;;;;;;;7.76;77.66;100360.91;5058894;28;20558;-66
2023/04/02 05:24:34;;;;;;;19.50;1.40;;;;;;;7.75;77.57;100360.00;5052075;28;20017;-66
2023/04/02 05:27:04;;;;;;;17.80;1.40;;;;;;;7.76;77.34;100358.28;5040275;28;20445;-66
2023/04/02 05:29:38;;;;;;;20.83;1.92;;;;;;;7.78;77.82;100366.13;5039758;28;20136;-66
2023/04/02 05:32:07;;;;;;;18.15;2.00;;;;;;;7.80;77.34;100367.03;5040144;28;20025;-66
2023/04/02 05:34:37;;;;;;;20.95;1.60;;;;;;;7.84;77.54;100366.22;5039930;28;20402;-66
2023/04/02 05:37:04;;;;;;;20.13;2.00;;;;;;;7.85;77.36;100365.34;5048738;28;20041;-66
2023/04/02 05:39:31;;;;;;;20.92;2.40;;;;;;;7.86;77.93;100367.09;5059896;28;20029;-66
2023/04/02 05:42:02;;;;;;;19.17;1.73;;;;;;;7.89;77.50;100367.13;5048462;28;20127;-66
2023/04/02 05:44:30;;;;;;;19.00;3.47;;;;;;;7.93;77.99;100376.78;5040046;28;20028;-66
2023/04/02 05:47:28;;;;;;;18.27;1.50;;;;;;;7.95;78.34;100377.66;5039897;28;20478;-66
2023/04/02 05:50:06;;;;;;;19.33;1.83;;;;;;;7.98;78.18;100382.94;5028497;28;20034;-66
2023/04/02 05:52:37;;;;;;;18.08;1.70;;;;;;;8.00;78.07;100381.19;5039626;28;20044;-66
2023/04/02 05:55:05;;;;;;;21.83;2.25;;;;;;;8.02;77.99;100384.72;5039731;28;20026;-66
2023/04/02 05:57:36;;;;;;;18.85;1.52;;;;;;;8.05;78.09;100379.47;5038617;28;20025;-66
2023/04/02 06:00:06;;;;;;;22.00;1.70;;;;;;;8.10;78.05;100381.28;5039597;28;20067;-66
2023/04/02 06:02:38;;;;;;;20.37;1.70;;;;;;;8.13;77.87;100390.03;5047375;28;20027;-66
2023/04/02 06:05:24;;;;;;;17.00;1.98;;;;;;;8.15;78.34;100390.06;5059418;28;20803;-65
2023/04/02 06:07:57;;;;;;;18.95;1.98;;;;;;;8.19;78.37;100394.47;5059449;28;20112;-66
2023/04/02 06:10:31;;;;;;;16.02;1.73;;;;;;;8.22;78.63;100396.25;5059266;28;20044;-66
2023/04/02 06:13:07;;;;;;;20.00;1.67;;;;;;;8.27;77.92;100397.16;5059472;28;20039;-66
2023/04/02 06:15:36;;;;;;;18.40;1.87;;;;;;;8.31;77.84;100402.41;5057096;28;20021;-66
2023/04/02 06:18:18;;;;;;;22.00;2.10;;;;;;;8.35;78.17;100407.72;5059154;28;20052;-66
2023/04/02 06:20:44;;;;;;;25.17;1.95;;;;;;;8.38;78.18;100403.34;5059244;28;20033;-66
2023/04/02 06:23:49;;;;;;;17.67;1.65;;;;;;;8.40;78.35;100406.00;5058640;28;20037;-66
2023/04/02 06:26:17;;;;;;;22.45;2.28;;;;;;;8.43;78.45;100406.00;5036534;28;20048;-66
2023/04/02 06:28:55;;;;;;;18.13;1.90;;;;;;;8.43;78.54;100408.63;5044533;28;20025;-66
2023/04/02 06:31:39;;;;;;;20.10;1.92;;;;;;;8.46;78.56;100413.91;5038529;28;20490;-67
2023/04/02 06:34:12;;;;;;;23.80;2.15;;;;;;;8.48;78.71;100420.03;5051107;28;20044;-66
2023/04/02 06:36:37;;;;;;;22.63;2.47;;;;;;;8.52;78.75;100413.97;5057673;28;20032;-65
2023/04/02 06:39:07;;;;;;;19.93;1.90;;;;;;;8.56;78.60;100410.53;5058678;28;20029;-66
2023/04/02 06:41:33;;;;;;;20.67;2.05;;;;;;;8.61;78.22;100411.41;5050826;28;20105;-66
2023/04/02 06:44:08;;;;;;;21.57;2.13;;;;;;;8.69;78.28;100414.09;5038912;28;20053;-64
2023/04/02 06:46:50;;;;;;;21.23;2.22;;;;;;;8.89;78.09;100415.94;5037436;28;20025;-64
2023/04/02 06:49:21;;;;;;;22.13;2.10;;;;;;;9.14;77.19;100419.56;5038515;28;20120;-64
2023/04/02 06:51:50;;;;;;;16.38;2.28;;;;;;;9.46;76.78;100418.81;5038928;28;20120;-64
2023/04/02 06:54:16;;;;;;;21.13;1.70;;;;;;;9.62;76.25;100424.97;5038423;28;20026;-64
2023/04/02 06:56:46;;;;;;;20.02;2.00;;;;;;;9.69;76.06;100425.88;5038735;28;20130;-64
2023/04/02 06:59:13;;;;;;;17.77;1.83;;;;;;;9.65;76.28;100424.13;5038534;28;20029;-64
2023/04/02 07:01:49;;;;;;;15.27;1.58;;;;;;;9.59;76.10;100424.09;5038331;28;20033;-65
2023/04/02 07:04:16;;;;;;;19.90;1.67;;;;;;;9.54;76.01;100421.47;5026661;28;20049;-64
2023/04/02 07:06:42;;;;;;;19.67;2.17;;;;;;;9.52;76.13;100422.31;5038619;28;20440;-64
2023/04/02 07:09:07;;;;;;;21.17;2.65;;;;;;;9.48;76.50;100438.09;5038265;28;20025;-64
2023/04/02 07:11:33;;;;;;;18.30;1.80;;;;;;;9.50;76.27;100430.22;5038210;28;20057;-66
2023/04/02 07:13:59;;;;;;;18.38;2.28;;;;;;;9.52;76.19;100432.84;5038359;28;20393;-66
2023/04/02 07:16:26;;;;;;;13.30;1.53;;;;;;;9.56;76.21;100426.72;5038077;28;20045;-66
2023/04/02 07:18:54;;;;;;;18.98;2.10;;;;;;;9.55;76.36;100438.13;5037633;28;20067;-66
2023/04/02 07:21:20;;;;;;;16.50;1.70;;;;;;;9.54;76.27;100426.72;5038058;28;20037;-66
2023/04/02 07:23:45;;;;;;;16.80;1.47;;;;;;;9.57;75.92;100431.13;5038117;28;20089;-66
2023/04/02 07:26:16;;;;;;;13.68;1.52;;;;;;;9.58;75.96;100428.47;5037980;28;20025;-66
2023/04/02 07:28:42;;;;;;;21.02;1.95;;;;;;;9.62;75.96;100434.63;5045551;28;20390;-66
2023/04/02 07:31:15;;;;;;;20.57;1.80;;;;;;;9.66;76.00;100431.13;5069813;28;20029;-66
2023/04/02 07:33:40;;;;;;;13.82;1.45;;;;;;;9.71;76.32;100428.53;5038148;28;20025;-66
2023/04/02 07:36:06;;;;;;;15.00;1.63;;;;;;;9.73;75.76;100432.88;5036656;28;20027;-66
2023/04/02 07:38:31;;;;;;;16.80;2.08;;;;;;;9.79;75.62;100428.53;5036495;28;20025;-66
2023/04/02 07:40:57;;;;;;;19.70;1.90;;;;;;;9.77;75.54;100432.03;5037758;28;21377;-66
2023/04/02 07:43:22;;;;;;;18.33;1.87;;;;;;;9.75;75.51;100431.13;5037917;28;20017;-66
2023/04/02 07:45:49;;;;;;;19.60;2.87;;;;;;;9.76;75.45;100438.16;5036311;28;20403;-66
2023/04/02 07:48:15;;;;;;;15.82;2.30;;;;;;;9.80;75.51;100443.44;5034308;28;20397;-66
2023/04/02 07:50:40;;;;;;;19.27;2.23;;;;;;;9.80;75.62;100439.03;5039582;28;20040;-66
2023/04/02 07:53:07;;;;;;;12.88;1.80;;;;;;;9.83;75.45;100438.19;5037625;28;20524;-66
2023/04/02 07:55:33;;;;;;;19.63;2.13;;;;;;;9.84;75.68;100439.94;5053909;28;20056;-66
2023/04/02 07:57:58;;;;;;;17.47;2.00;;;;;;;9.88;75.40;100442.56;5050777;28;20021;-65
2023/04/02 08:00:27;;;;;;;18.37;2.03;;;;;;;9.90;75.42;100450.47;5037227;28;20057;-66
2023/04/02 08:02:53;;;;;;;13.68;1.95;;;;;;;9.91;75.59;100446.97;5046718;28;20039;-66
2023/04/02 08:05:18;;;;;;;16.88;1.73;;;;;;;9.93;75.26;100454.88;5057143;28;20057;-66
2023/04/02 08:07:54;;;;;;;18.70;2.40;;;;;;;9.94;75.42;100446.97;5057267;28;20522;-66
2023/04/02 08:10:20;;;;;;;18.75;2.00;;;;;;;9.97;75.73;100440.84;5056932;28;20059;-66
2023/04/02 08:12:46;;;;;;;11.37;1.63;;;;;;;9.99;75.23;100445.19;5057222;28;20037;-66
2023/04/02 08:15:15;;;;;;;15.97;1.73;;;;;;;10.08;75.69;100448.75;5056881;28;20484;-66
2023/04/02 08:17:41;;;;;;;18.47;2.43;;;;;;;10.15;75.78;100455.75;5044789;28;20268;-66
2023/04/02 08:20:13;;;;;;;17.60;2.38;;;;;;;10.23;75.47;100464.53;5037086;28;20022;-66
2023/04/02 08:22:39;;;;;;;16.98;1.95;;;;;;;10.28;75.24;100457.53;5037145;28;20030;-66
2023/04/02 08:25:05;;;;;;;16.57;2.00;;;;;;;10.35;75.80;100458.38;5039220;28;20075;-65
2023/04/02 08:27:30;;;;;;;14.43;1.88;;;;;;;10.45;75.53;100461.94;5038964;28;20532;-66
2023/04/02 08:29:55;;;;;;;18.90;2.03;;;;;;;10.66;75.29;100468.06;5035616;28;20065;-66
2023/04/02 08:32:22;;;;;;;14.33;1.53;;;;;;;10.71;74.68;100475.09;5035810;28;20033;-66
2023/04/02 08:34:48;;;;;;;14.98;1.85;;;;;;;10.77;74.49;100471.56;5036581;28;20025;-66
2023/04/02 08:37:13;;;;;;;17.50;2.00;;;;;;;10.74;74.46;100468.94;5048197;28;20029;-66
2023/04/02 08:39:40;;;;;;;14.53;1.73;;;;;;;10.80;75.03;100466.28;5055866;28;20040;-66
2023/04/02 08:42:41;;;;;;;18.92;1.92;;;;;;;10.98;75.11;100464.50;5043759;28;20029;-66
2023/04/02 08:45:21;;;;;;;16.25;1.90;;;;;;;11.18;74.27;100467.94;5036111;28;20089;-66
2023/04/02 08:47:49;;;;;;;12.18;1.58;;;;;;;11.36;74.06;100466.13;5036003;28;20033;-66
2023/04/02 08:50:29;;;;;;;15.45;2.10;;;;;;;11.67;73.50;100462.47;5031470;28;20441;-66
2023/04/02 08:52:56;;;;;;;16.03;1.67;;;;;;;11.75;72.65;100458.91;5034919;28;20021;-66
2023/04/02 08:55:38;;;;;;;17.65;1.95;;;;;;;11.81;71.75;100460.63;5037617;28;20557;-66
2023/04/02 08:58:27;;;;;;;14.77;1.50;;;;;;;11.95;71.65;100459.66;5035396;28;20053;-67
2023/04/02 09:00:55;;;;;;;13.60;1.80;;;;;;;12.08;71.02;100468.41;5031357;28;20047;-65
2023/04/02 09:03:23;;;;;;;17.95;1.90;;;;;;;12.10;70.36;100469.25;5033426;28;20444;-66
2023/04/02 09:05:50;;;;;;;15.90;1.60;;;;;;;12.17;70.42;100473.59;5044173;28;20378;-65
2023/04/02 09:08:35;;;;;;;13.30;1.85;;;;;;;12.36;70.45;100471.72;5036000;28;20061;-65
2023/04/02 09:11:20;;;;;;;15.07;1.45;;;;;;;12.53;70.17;100483.88;5056301;28;20045;-64
2023/04/02 09:13:48;;;;;;;14.40;1.90;;;;;;;12.66;69.92;100476.72;5056433;28;20029;-65
2023/04/02 09:16:16;;;;;;;12.93;1.50;;;;;;;12.62;70.02;100483.81;5056338;28;20481;-65
2023/04/02 09:18:43;;;;;;;13.87;1.53;;;;;;;12.49;70.21;100483.91;5056247;28;20037;-65
2023/04/02 09:21:30;;;;;;;15.90;1.92;;;;;;;12.39;69.64;100490.19;5046086;28;20038;-64
2023/04/02 09:23:56;;;;;;;12.18;1.60;;;;;;;12.56;69.67;100490.03;5067336;28;20078;-65
2023/04/02 09:26:30;;;;;;;12.10;1.33;;;;;;;12.85;69.63;100491.53;5037429;28;20041;-65
2023/04/02 09:29:06;;;;;;;13.90;1.65;;;;;;;13.29;69.02;100491.97;5037532;28;20540;-65
2023/04/02 09:31:38;;;;;;;14.97;1.47;;;;;;;13.61;67.56;100482.78;5034663;28;20021;-65
2023/04/02 09:34:30;;;;;;;13.35;1.63;;;;;;;13.72;67.23;100489.69;5036326;28;20030;-65
2023/04/02 09:37:06;;;;;;;10.77;1.20;;;;;;;13.64;66.99;100489.81;5035053;28;20063;-65
2023/04/02 09:39:31;;;;;;;10.65;1.35;;;;;;;13.41;67.56;100496.22;5036169;28;20116;-65
2023/04/02 09:41:57;;;;;;;11.80;1.57;;;;;;;13.18;67.96;100494.72;5037742;28;20115;-65
2023/04/02 09:44:24;;;;;;;13.40;1.17;;;;;;;12.99;68.33;100503.75;5040076;28;20371;-65
2023/04/02 09:46:58;;;;;;;11.15;1.70;;;;;;;12.72;68.68;100511.91;5039711;28;20072;-65
2023/04/02 09:49:27;;;;;;;9.25;1.35;;;;;;;12.55;69.17;100513.84;5039732;28;20030;-65
2023/04/02 09:52:27;;;;;;;4.47;0.88;;;;;;;12.34;69.13;100524.53;5038657;28;20033;-65
2023/04/02 09:55:25;;;;;;;5.80;1.10;;;;;;;12.23;69.57;100523.75;5030346;28;20029;-65
2023/04/02 09:58:06;;;;;;;8.30;1.20;;;;;;;12.16;69.98;100519.38;5039939;28;20049;-67
2023/04/02 10:00:32;;;;;;;8.68;1.30;;;;;;;12.18;70.62;100515.00;5030644;28;20493;-65
2023/04/02 10:03:06;;;;;;;8.37;1.33;;;;;;;12.24;70.53;100514.06;5049799;28;20101;-65
2023/04/02 10:05:33;;;;;;;5.40;0.88;;;;;;;12.42;70.34;100520.94;5059592;28;20118;-64
2023/04/02 10:08:31;;;;;;;5.75;0.73;;;;;;;12.56;69.44;100516.44;5039943;28;20025;-65
2023/04/02 10:11:00;;;;;;;3.78;0.70;;;;;;;12.67;69.01;100519.00;5017837;28;20056;-65
2023/04/02 10:13:25;;;;;;;8.65;1.77;;;;;;;12.74;68.65;100509.25;5043349;28;20788;-65
2023/04/02 10:16:06;;;;;;;6.80;1.70;;;;;;;12.80;67.97;100514.47;5044455;28;20037;-65
2023/04/02 10:18:47;;;;;;;6.85;1.13;;;;;;;12.85;67.32;100520.59;5043900;28;20036;-66
2023/04/02 10:21:35;;;;;;;7.50;1.20;;;;;;;13.03;67.53;100516.03;5041050;28;20037;-65
2023/04/02 10:24:01;;;;;;;6.68;0.90;;;;;;;13.19;67.07;100512.34;5042620;28;20028;-65
2023/04/02 10:26:53;;;;;;;3.90;0.60;;;;;;;13.16;66.68;100509.72;5043346;28;20083;-66
2023/04/02 10:29:28;;;;;;;5.50;1.00;;;;;;;13.11;66.22;100519.47;5040662;28;20053;-65
2023/04/02 10:32:18;;;;;;;4.40;0.80;;;;;;;13.13;65.97;100515.03;5036407;28;20429;-64
2023/04/02 10:34:50;;;;;;;5.10;0.90;;;;;;;13.38;65.72;100512.09;5035951;28;20032;-65
2023/04/02 10:37:35;;;;;;;5.72;0.77;;;;;;;13.47;65.18;100505.88;5041412;28;20029;-65
2023/04/02 10:40:23;;;;;;;4.47;0.70;;;;;;;13.45;64.29;100516.47;5028689;28;20058;-64
2023/04/02 10:43:33;;;;;;;5.63;0.80;;;;;;;13.39;64.85;100510.34;5025977;28;20050;-64
2023/04/02 10:46:05;;;;;;;6.97;0.80;;;;;;;13.42;64.39;100524.44;5034848;28;20406;-64
2023/04/02 10:48:52;;;;;;;4.10;0.77;;;;;;;13.45;63.80;100519.13;5034877;28;20466;-64
2023/04/02 10:51:52;;;;;;;6.20;1.27;;;;;;;13.45;63.75;100519.13;5027565;28;20475;-63
2023/04/02 10:54:26;;;;;;;11.93;3.35;;;;;;;13.42;64.54;100519.13;5036892;28;20056;-64
2023/04/02 10:57:04;;;;;;;11.75;3.80;;;;;;;13.41;65.16;100527.06;5038580;28;20037;-63
2023/04/02 10:59:33;;;;;;;6.40;2.40;;;;;;;13.38;65.30;100525.31;5038209;28;20048;-64
2023/04/02 11:02:05;;;;;;;6.30;1.20;;;;;;;13.34;64.93;100526.25;5035920;28;20107;-64
2023/04/02 11:04:41;;;;;;;6.03;1.23;;;;;;;13.29;65.54;100526.34;5038044;28;20030;-64
2023/04/02 11:07:16;;;;;;;7.45;1.00;;;;;;;13.28;65.58;100521.06;5045857;28;20064;-63
2023/04/02 11:09:45;;;;;;;5.57;1.00;;;;;;;13.33;65.71;100520.13;5046499;28;20036;-65
2023/04/02 11:12:26;;;;;;;8.52;1.33;;;;;;;13.31;64.65;100519.25;5043066;28;20554;-64
2023/04/02 11:14:54;;;;;;;7.57;2.13;;;;;;;13.43;64.37;100518.28;5040130;28;20041;-64
2023/04/02 11:17:20;;;;;;;7.50;1.70;;;;;;;13.48;63.90;100513.81;5042649;28;20033;-64
2023/04/02 11:19:45;;;;;;;6.15;1.73;;;;;;;13.48;63.37;100518.19;5041772;28;20032;-64
2023/04/02 11:22:21;;;;;;;4.30;0.50;;;;;;;13.37;63.34;100520.06;5045354;28;20044;-64
2023/04/02 11:24:51;;;;;;;4.80;0.90;;;;;;;13.29;63.11;100523.69;5035462;28;20025;-64
2023/04/02 11:27:32;;;;;;;5.82;1.52;;;;;;;13.38;63.48;100525.31;5040567;28;20433;-64
2023/04/02 11:30:26;;;;;;;4.55;0.90;;;;;;;13.42;63.87;100524.44;5043871;28;20056;-65
2023/04/02 11:32:51;;;;;;;5.55;1.00;;;;;;;13.54;63.70;100517.25;5041240;28;20029;-65
2023/04/02 11:35:29;;;;;;;4.97;0.90;;;;;;;13.92;63.96;100521.19;5041116;28;20105;-65
2023/04/02 11:37:57;;;;;;;5.03;0.90;;;;;;;14.18;62.13;100520.78;5034333;28;20548;-65
2023/04/02 11:40:40;;;;;;;4.23;0.87;;;;;;;14.10;59.99;100521.81;5044975;28;20127;-66
2023/04/02 11:43:34;;;;;;;3.10;0.70;;;;;;;14.03;60.70;100524.53;5035222;28;20041;-66
2023/04/02 11:46:28;;;;;;;5.40;0.77;;;;;;;14.00;60.18;100535.19;5032284;28;20029;-66
2023/04/02 11:49:13;;;;;;;4.85;0.85;;;;;;;14.03;59.71;100532.50;5036549;28;20409;-65
2023/04/02 11:51:39;;;;;;;5.15;0.70;;;;;;;14.15;59.82;100536.72;5052078;28;20494;-66
2023/04/02 11:54:25;;;;;;;4.03;0.63;;;;;;;14.19;58.62;100529.63;5037220;28;20026;-65
2023/04/02 11:57:05;;;;;;;7.15;0.93;;;;;;;14.23;58.40;100536.63;5037436;28;20438;-65
2023/04/02 12:00:07;;;;;;;4.25;0.60;;;;;;;14.25;59.64;100542.78;5025863;28;20112;-65
2023/04/02 12:02:58;;;;;;;6.32;0.60;;;;;;;14.33;59.18;100532.06;5055509;28;20039;-66